Skip Navigation LinksHome page > Weather > Current weather Skip Navigation Links

Current Weather

Eureka, Nunavut

For information only: do not use for flight planning or navigation.
Latest weather
Observation time Wednesday, April 1, 2015 4:00 PM CDT
Local time Wednesday, April 1, 2015 4:14 PM CDT
Flight conditions Visual Meteorological Conditions
Winds
Wind direction East-Northeast (60°)
Wind speed 2 mph
Visibility 15 mi.
Sky condition
Ceiling unlimited
Sky clear
Temperature -22°F
Dewpoint -33°F
Altimeter 30.39 in.Hg
Derived measurements
Relative humidity 56%
Wind chill -22°F
Density altitude -6417 ft.
Sea-level pressure 30.40 in.Hg
METAR CWEU 012100Z 06002KT 15SM SKC M30/M36 A3039 RMK SLP293

Settings

Location code

InnerDrive.Weather 4.0.5567.0 Release CLR 4.0.30319.34014
Copyright ©2015 Inner Drive Technology. All rights reserved. Portions Copyright ©1986-2015 David Braverman.

Find weather

Site navigation


Skip Navigation Links

Place info

Page info

PayPal - The safer, easier way to pay online!

Return home.

Copyright ©2015 Inner Drive Technology. Purveyors of fine, hand-crafted computer software. Page printed 2015-04-01T21:14:20 UTC.